Time;durP1;ratioP1;P1;durP2;ratioP2;P2;SDS_P1;SDS_P2;PMS_P1;PMS_P2;Temp;Humidity;BMP_temperature;BMP_pressure;BME280_temperature;BME280_humidity;BME280_pressure;Samples;Min_cycle;Max_cycle;Signal;HPM_P1;HPM_P2
2024/04/04 00:00:15;;;;;;;0.55;0.40;;;;;;;13.99;53.60;94883.63;5068532;28;20473;-48
2024/04/04 00:02:40;;;;;;;1.27;0.50;;;;;;;13.91;53.93;94890.88;5060969;28;20033;-47
2024/04/04 00:05:06;;;;;;;0.93;0.63;;;;;;;13.97;53.25;94893.44;5068023;28;20027;-44
2024/04/04 00:07:32;;;;;;;0.85;0.45;;;;;;;13.92;53.47;94885.44;5068028;28;20052;-44
2024/04/04 00:09:57;;;;;;;1.40;0.60;;;;;;;13.87;53.14;94887.88;5068892;28;20037;-44
2024/04/04 00:12:25;;;;;;;0.88;0.70;;;;;;;13.96;52.71;94888.47;5043017;28;20032;-44
2024/04/04 00:14:50;;;;;;;0.70;0.40;;;;;;;13.90;52.54;94897.94;5065115;28;20378;-43
2024/04/04 00:17:16;;;;;;;0.93;0.50;;;;;;;13.93;52.53;94901.94;5065616;28;20029;-44
2024/04/04 00:19:41;;;;;;;0.63;0.50;;;;;;;14.07;51.85;94911.34;5072001;28;20036;-44
2024/04/04 00:22:07;;;;;;;0.95;0.50;;;;;;;14.03;51.96;94912.75;5051810;28;20037;-45
2024/04/04 00:24:32;;;;;;;0.77;0.50;;;;;;;13.92;53.23;94921.22;5064490;28;20378;-44
2024/04/04 00:26:58;;;;;;;0.90;0.50;;;;;;;14.00;52.79;94919.19;5072229;28;20028;-44
2024/04/04 00:29:24;;;;;;;1.30;0.50;;;;;;;13.94;53.44;94919.25;5071507;28;20028;-50
2024/04/04 00:31:49;;;;;;;0.70;0.50;;;;;;;13.89;54.28;94923.25;5072214;28;20140;-44
2024/04/04 00:34:15;;;;;;;2.28;0.50;;;;;;;13.96;53.44;94917.22;5065297;28;20094;-45
2024/04/04 00:36:40;;;;;;;1.45;0.60;;;;;;;13.86;53.72;94928.91;5065075;28;20027;-45
2024/04/04 00:39:06;;;;;;;1.67;0.60;;;;;;;13.98;53.10;94925.66;5058437;28;20048;-44
2024/04/04 00:41:31;;;;;;;1.63;0.60;;;;;;;13.95;53.00;94916.41;5068629;28;20034;-44
2024/04/04 00:43:56;;;;;;;0.80;0.50;;;;;;;13.86;53.67;94915.03;5054624;28;20077;-44
2024/04/04 00:46:23;;;;;;;1.17;0.55;;;;;;;13.63;54.54;94923.31;5054897;28;20021;-45
2024/04/04 00:48:49;;;;;;;1.55;0.60;;;;;;;13.44;55.60;94920.53;5068507;28;20031;-43
2024/04/04 00:51:15;;;;;;;2.33;0.70;;;;;;;13.44;54.56;94922.31;5066271;28;20044;-45
2024/04/04 00:53:40;;;;;;;1.05;0.60;;;;;;;13.62;54.57;94916.47;5068988;28;20477;-44
2024/04/04 00:56:06;;;;;;;1.02;0.55;;;;;;;13.72;54.47;94923.91;5068493;28;20055;-44
2024/04/04 00:58:31;;;;;;;1.38;0.80;;;;;;;13.81;54.43;94925.28;5050440;28;20033;-44
2024/04/04 01:00:57;;;;;;;1.55;0.50;;;;;;;13.84;54.51;94924.88;5047713;28;20102;-44
2024/04/04 01:03:22;;;;;;;1.15;0.50;;;;;;;13.72;54.41;94924.69;5069383;28;20127;-44
2024/04/04 01:05:48;;;;;;;0.93;0.60;;;;;;;13.66;55.74;94933.34;5071785;28;20033;-44
2024/04/04 01:08:14;;;;;;;1.25;0.47;;;;;;;13.61;55.89;94931.38;5070768;28;20044;-44
2024/04/04 01:10:39;;;;;;;1.52;0.60;;;;;;;13.74;55.79;94929.72;5070884;28;20036;-44
2024/04/04 01:13:05;;;;;;;2.05;0.55;;;;;;;13.61;55.75;94933.97;5070826;28;20484;-44
2024/04/04 01:15:30;;;;;;;1.17;0.50;;;;;;;13.49;55.74;94932.97;5070256;28;20043;-44
2024/04/04 01:17:58;;;;;;;2.50;0.60;;;;;;;13.62;57.00;94943.41;5063193;28;20024;-45
2024/04/04 01:20:27;;;;;;;1.50;0.60;;;;;;;13.45;58.02;94950.06;5068008;28;20037;-44
2024/04/04 01:22:52;;;;;;;0.63;0.55;;;;;;;13.29;59.03;94957.28;5067341;28;20037;-44
2024/04/04 01:25:18;;;;;;;1.33;0.85;;;;;;;13.11;59.37;94946.59;5064742;28;20052;-50
2024/04/04 01:27:48;;;;;;;1.42;1.10;;;;;;;13.33;58.64;94946.44;5053162;28;20077;-44
2024/04/04 01:30:13;;;;;;;1.83;0.80;;;;;;;13.22;58.06;94947.81;5070639;28;20033;-43
2024/04/04 01:32:38;;;;;;;2.45;1.10;;;;;;;13.36;58.49;94938.19;5067465;28;20025;-44
2024/04/04 01:35:04;;;;;;;1.42;1.20;;;;;;;13.01;59.81;94939.16;5066820;28;20037;-44
2024/04/04 01:37:29;;;;;;;2.78;1.10;;;;;;;13.33;58.73;94942.03;5065297;28;20048;-46
2024/04/04 01:39:55;;;;;;;2.00;1.00;;;;;;;12.98;59.77;94936.16;5070657;28;20028;-44
2024/04/04 01:42:20;;;;;;;1.70;1.00;;;;;;;12.51;61.15;94931.63;5066290;28;20032;-47
2024/04/04 01:44:45;;;;;;;2.42;0.60;;;;;;;12.61;61.23;94936.47;5066132;28;20045;-44
2024/04/04 01:47:11;;;;;;;1.88;0.68;;;;;;;12.82;60.69;94925.09;5064397;28;20024;-44
2024/04/04 01:49:37;;;;;;;1.05;0.50;;;;;;;12.57;61.46;94926.66;5066724;28;20043;-44
2024/04/04 01:52:02;;;;;;;1.48;0.80;;;;;;;12.47;62.25;94940.88;5067003;28;20362;-44
2024/04/04 01:54:28;;;;;;;2.80;0.80;;;;;;;12.55;61.73;94937.28;5081551;28;20088;-44
2024/04/04 01:56:53;;;;;;;1.88;0.60;;;;;;;12.57;61.85;94927.44;5082533;28;20021;-44
2024/04/04 01:59:19;;;;;;;1.13;0.50;;;;;;;12.70;61.48;94926.69;5069973;28;20043;-43
2024/04/04 02:01:44;;;;;;;1.70;0.50;;;;;;;12.82;60.75;94932.91;5070278;28;20039;-44
2024/04/04 02:04:09;;;;;;;1.95;0.60;;;;;;;12.87;60.62;94932.31;5070228;28;20055;-44
2024/04/04 02:06:35;;;;;;;1.58;0.50;;;;;;;13.07;60.02;94932.34;5049523;28;20036;-44
2024/04/04 02:09:00;;;;;;;3.13;0.50;;;;;;;13.07;59.79;94929.72;5050169;28;20097;-43
2024/04/04 02:11:26;;;;;;;0.73;0.50;;;;;;;12.74;60.82;94935.72;5071362;28;20464;-43
2024/04/04 02:13:51;;;;;;;1.63;0.57;;;;;;;12.69;60.77;94923.25;5066580;28;20163;-46
2024/04/04 02:16:23;;;;;;;0.50;0.45;;;;;;;12.84;60.78;94919.66;5064514;28;20024;-44
2024/04/04 02:18:49;;;;;;;1.00;0.50;;;;;;;13.00;60.04;94923.69;5071173;28;20039;-44
2024/04/04 02:21:15;;;;;;;0.70;0.43;;;;;;;13.09;60.29;94930.34;5068874;28;20040;-44
2024/04/04 02:23:40;;;;;;;0.60;0.47;;;;;;;12.96;60.17;94917.28;5063814;28;20024;-44
2024/04/04 02:26:05;;;;;;;1.75;0.60;;;;;;;13.18;59.54;94907.44;5069878;28;20044;-44
2024/04/04 02:28:31;;;;;;;1.52;0.50;;;;;;;12.88;60.52;94910.44;5068733;28;20023;-44
2024/04/04 02:30:56;;;;;;;0.50;0.47;;;;;;;12.73;60.72;94907.19;5049476;28;20059;-44
2024/04/04 02:33:22;;;;;;;1.00;0.50;;;;;;;12.76;60.55;94905.00;5063150;28;20035;-44
2024/04/04 02:35:54;;;;;;;0.93;0.40;;;;;;;12.87;59.86;94909.63;5069347;28;20071;-44
2024/04/04 02:38:22;;;;;;;1.45;0.47;;;;;;;13.06;59.36;94902.81;5067025;28;20542;-44
2024/04/04 02:40:48;;;;;;;1.17;0.55;;;;;;;13.04;59.54;94904.00;5066345;28;20033;-45
2024/04/04 02:43:15;;;;;;;1.73;0.80;;;;;;;12.73;61.18;94918.44;5078814;28;20025;-43
2024/04/04 02:45:41;;;;;;;1.23;0.50;;;;;;;12.73;61.05;94909.81;5060669;28;20020;-43
2024/04/04 02:48:07;;;;;;;0.88;0.60;;;;;;;12.78;60.72;94912.63;5070913;28;20372;-44
2024/04/04 02:50:32;;;;;;;1.48;0.68;;;;;;;12.88;60.57;94911.22;5058129;28;20031;-43
2024/04/04 02:52:58;;;;;;;2.63;0.68;;;;;;;13.03;60.10;94907.63;5052778;28;20517;-43
2024/04/04 02:55:23;;;;;;;0.98;0.65;;;;;;;13.18;59.99;94910.84;5071113;28;20029;-44
2024/04/04 02:57:49;;;;;;;0.77;0.50;;;;;;;13.17;59.51;94906.63;5068725;28;20056;-44
2024/04/04 03:00:14;;;;;;;1.52;0.55;;;;;;;13.02;60.21;94911.25;5062309;28;20024;-44
2024/04/04 03:02:40;;;;;;;0.63;0.47;;;;;;;13.16;59.82;94918.09;5052499;28;20029;-44
2024/04/04 03:05:05;;;;;;;0.80;0.45;;;;;;;12.80;60.96;94919.25;5064328;28;20025;-44
2024/04/04 03:07:31;;;;;;;4.97;0.60;;;;;;;13.10;59.70;94904.03;5069827;28;20048;-45
2024/04/04 03:09:56;;;;;;;0.90;0.50;;;;;;;13.04;59.64;94904.00;5068620;28;20029;-45
2024/04/04 03:12:22;;;;;;;1.40;0.40;;;;;;;12.68;60.61;94911.22;5074749;28;20032;-44
2024/04/04 03:14:48;;;;;;;0.55;0.40;;;;;;;13.07;59.55;94911.47;5055481;28;20029;-44
2024/04/04 03:17:13;;;;;;;1.67;0.55;;;;;;;13.07;59.71;94908.84;5064785;28;20024;-44
2024/04/04 03:19:38;;;;;;;0.93;0.55;;;;;;;13.04;59.85;94909.22;5065671;28;20029;-44
2024/04/04 03:22:04;;;;;;;1.02;0.60;;;;;;;12.87;60.07;94901.81;5067563;28;20036;-44
2024/04/04 03:24:30;;;;;;;0.50;0.50;;;;;;;13.07;59.52;94898.41;5058498;28;20059;-43
2024/04/04 03:26:55;;;;;;;0.77;0.50;;;;;;;13.15;59.45;94906.03;5052297;28;20068;-44
2024/04/04 03:29:21;;;;;;;0.88;0.40;;;;;;;13.08;59.77;94906.03;5060993;28;20043;-44
2024/04/04 03:31:46;;;;;;;0.93;0.50;;;;;;;13.05;59.84;94906.44;5069803;28;20032;-44
2024/04/04 03:34:12;;;;;;;0.70;0.43;;;;;;;13.17;59.09;94908.44;5070206;28;20123;-44
2024/04/04 03:36:37;;;;;;;1.30;0.60;;;;;;;13.32;58.20;94916.91;5064730;28;20101;-44
2024/04/04 03:39:03;;;;;;;1.25;0.60;;;;;;;13.18;58.60;94910.06;5051593;28;20044;-43
2024/04/04 03:41:29;;;;;;;0.95;0.70;;;;;;;12.82;58.47;94906.81;5048606;28;20170;-46
2024/04/04 03:43:54;;;;;;;1.65;0.90;;;;;;;12.67;58.66;94899.16;5080221;28;20501;-44
2024/04/04 03:46:20;;;;;;;2.22;1.00;;;;;;;12.69;58.60;94904.19;5066146;28;20020;-43
2024/04/04 03:48:45;;;;;;;1.92;0.95;;;;;;;12.59;58.99;94911.59;5068233;28;20028;-44
2024/04/04 03:51:11;;;;;;;1.17;0.90;;;;;;;12.31;60.09;94909.91;5072596;28;20028;-43
2024/04/04 03:53:37;;;;;;;1.10;0.73;;;;;;;12.41;59.50;94909.53;5072076;28;20040;-44
2024/04/04 03:56:02;;;;;;;1.73;0.90;;;;;;;12.25;59.87;94914.09;5062281;28;20025;-44
2024/04/04 03:58:28;;;;;;;2.30;0.80;;;;;;;12.49;58.90;94907.56;5061183;28;20094;-43
2024/04/04 04:00:53;;;;;;;1.98;0.80;;;;;;;12.49;58.80;94914.59;5067658;28;20048;-47
2024/04/04 04:03:18;;;;;;;3.20;0.98;;;;;;;12.62;59.09;94908.56;5054321;28;20036;-44
2024/04/04 04:05:45;;;;;;;1.27;0.90;;;;;;;12.85;58.21;94898.59;5072009;28;20028;-44
2024/04/04 04:08:10;;;;;;;2.67;1.23;;;;;;;12.63;59.27;94897.94;5054962;28;20049;-47
2024/04/04 04:10:37;;;;;;;3.55;1.00;;;;;;;12.70;59.14;94897.97;5070472;28;20035;-45
2024/04/04 04:13:04;;;;;;;1.10;0.90;;;;;;;12.70;59.27;94892.75;5062748;28;20025;-44
2024/04/04 04:15:29;;;;;;;2.10;0.80;;;;;;;12.63;59.66;94889.31;5066502;28;20479;-45
2024/04/04 04:17:55;;;;;;;0.90;0.60;;;;;;;12.86;58.71;94892.34;5073506;28;20036;-45
2024/04/04 04:23:04;;;;;;;0.85;0.70;;;;;;;12.52;58.96;94880.25;5065136;28;20098;-44
2024/04/04 04:25:30;;;;;;;1.05;0.82;;;;;;;12.57;59.31;94887.50;5072846;28;20092;-44
2024/04/04 04:27:55;;;;;;;3.22;0.80;;;;;;;12.62;59.05;94880.69;5053211;28;20032;-44
2024/04/04 04:30:21;;;;;;;1.15;0.90;;;;;;;12.71;58.49;94883.91;5072396;28;20036;-45
2024/04/04 04:32:46;;;;;;;2.38;1.15;;;;;;;12.74;58.59;94888.75;5068793;28;20385;-44
2024/04/04 04:35:11;;;;;;;1.35;0.88;;;;;;;12.82;58.32;94895.56;5061731;28;20032;-46
2024/04/04 04:37:37;;;;;;;1.35;0.70;;;;;;;12.83;58.62;94897.16;5034998;28;20119;-44
2024/04/04 04:40:03;;;;;;;1.58;0.90;;;;;;;12.85;58.63;94890.75;5081818;28;20419;-44
2024/04/04 04:42:29;;;;;;;1.88;0.70;;;;;;;12.77;58.64;94896.16;5057326;28;20040;-44
2024/04/04 04:44:54;;;;;;;0.98;0.65;;;;;;;12.89;58.12;94902.41;5070407;28;20037;-44
2024/04/04 04:47:19;;;;;;;1.70;0.88;;;;;;;13.14;56.85;94901.03;5083311;28;20131;-44
2024/04/04 04:49:45;;;;;;;1.00;0.73;;;;;;;12.97;57.50;94905.84;5045723;28;20089;-44
2024/04/04 04:52:10;;;;;;;1.13;0.75;;;;;;;12.83;58.07;94900.59;5051736;28;20343;-44
2024/04/04 04:54:36;;;;;;;2.20;0.82;;;;;;;12.83;58.13;94891.94;5068391;28;20058;-44
2024/04/04 04:57:02;;;;;;;0.90;0.80;;;;;;;12.86;58.26;94894.16;5071341;28;20105;-44
2024/04/04 04:59:27;;;;;;;2.35;0.60;;;;;;;12.91;57.98;94894.38;5070534;28;20078;-44
2024/04/04 05:01:53;;;;;;;2.10;0.88;;;;;;;12.79;58.17;94885.53;5054801;28;20036;-44
2024/04/04 05:04:20;;;;;;;2.05;0.70;;;;;;;12.80;58.11;94885.34;5078762;28;20036;-44
2024/04/04 05:06:46;;;;;;;2.00;0.70;;;;;;;12.81;58.03;94886.94;5070387;28;20037;-44
2024/04/04 05:09:13;;;;;;;1.08;0.80;;;;;;;12.69;58.88;94893.75;5086001;28;20067;-44
2024/04/04 05:11:38;;;;;;;2.03;0.70;;;;;;;12.79;58.52;94894.16;5071113;28;20024;-44
2024/04/04 05:14:04;;;;;;;0.95;0.77;;;;;;;12.76;58.31;94899.00;5051084;28;20086;-45
2024/04/04 05:16:29;;;;;;;1.33;0.98;;;;;;;12.80;58.57;94894.97;5066290;28;20115;-44
2024/04/04 05:18:55;;;;;;;0.95;0.90;;;;;;;12.71;59.14;94897.75;5070685;28;20119;-44
2024/04/04 05:21:20;;;;;;;4.07;0.82;;;;;;;12.03;60.03;94895.16;5061516;28;20192;-44
2024/04/04 05:23:46;;;;;;;1.92;1.00;;;;;;;12.57;58.87;94900.56;5082777;28;20032;-44
2024/04/04 05:26:12;;;;;;;1.35;0.95;;;;;;;12.72;58.27;94901.19;5064676;28;20116;-43
2024/04/04 05:28:38;;;;;;;1.80;1.10;;;;;;;12.87;57.67;94893.16;5066525;28;20496;-45
2024/04/04 05:31:04;;;;;;;1.00;0.70;;;;;;;12.87;57.64;94887.94;5070589;28;20032;-44
2024/04/04 05:33:29;;;;;;;2.17;0.80;;;;;;;12.72;59.01;94901.19;5052438;28;20044;-44
2024/04/04 05:35:55;;;;;;;1.80;1.00;;;;;;;13.00;58.15;94894.97;5061859;28;20060;-45
2024/04/04 05:38:21;;;;;;;1.83;1.00;;;;;;;12.85;58.98;94890.75;5068338;28;20025;-43
2024/04/04 05:40:46;;;;;;;1.25;0.80;;;;;;;13.04;58.09;94890.97;5064172;28;20036;-43
2024/04/04 05:43:12;;;;;;;1.48;0.80;;;;;;;12.99;58.31;94893.38;5056092;28;20020;-48
2024/04/04 05:45:37;;;;;;;1.73;0.88;;;;;;;13.01;58.55;94892.16;5061130;28;20025;-48
2024/04/04 05:48:03;;;;;;;1.42;0.80;;;;;;;13.26;57.00;94897.59;5066310;28;20121;-46
2024/04/04 05:50:28;;;;;;;1.38;0.88;;;;;;;13.18;57.54;94895.19;5066860;28;20032;-47
2024/04/04 05:52:54;;;;;;;2.47;1.10;;;;;;;13.11;57.86;94894.38;5070723;28;20119;-44
2024/04/04 05:55:19;;;;;;;2.67;1.30;;;;;;;13.49;57.72;94893.78;5056063;28;20025;-47
2024/04/04 05:57:45;;;;;;;3.45;1.30;;;;;;;14.84;54.79;94893.06;5065381;28;20099;-44
2024/04/04 06:00:10;;;;;;;4.18;1.45;;;;;;;16.60;50.66;94901.44;5055595;28;20218;-43
2024/04/04 06:02:36;;;;;;;1.50;0.82;;;;;;;18.22;46.46;94884.63;5071130;28;20040;-43
2024/04/04 06:05:03;;;;;;;1.08;0.82;;;;;;;19.66;43.18;94890.53;5067166;28;20025;-44
2024/04/04 06:07:28;;;;;;;2.25;0.77;;;;;;;21.38;39.70;94899.06;5069949;28;20056;-44
2024/04/04 06:09:54;;;;;;;0.88;0.70;;;;;;;22.27;38.00;94896.72;5066078;28;20025;-44
2024/04/04 06:12:19;;;;;;;1.75;0.80;;;;;;;22.81;37.13;94891.06;5074890;28;20174;-46
2024/04/04 06:14:47;;;;;;;0.70;0.60;;;;;;;23.08;36.33;94901.47;5053059;28;20044;-45
2024/04/04 06:17:13;;;;;;;1.15;0.60;;;;;;;23.91;35.26;94894.28;5061789;28;20063;-45
2024/04/04 06:19:38;;;;;;;1.00;0.60;;;;;;;24.03;34.33;94901.94;5069747;28;20111;-44
2024/04/04 06:22:04;;;;;;;0.80;0.50;;;;;;;24.19;34.28;94898.19;5068546;28;20094;-47
2024/04/04 06:24:29;;;;;;;0.60;0.50;;;;;;;24.32;33.81;94907.44;5069409;28;20021;-44
2024/04/04 06:26:55;;;;;;;1.20;0.30;;;;;;;24.10;32.92;94905.91;5067803;28;20035;-44
2024/04/04 06:29:23;;;;;;;0.52;0.50;;;;;;;22.49;35.72;94893.91;5066261;28;20372;-45
2024/04/04 06:31:48;;;;;;;0.60;0.50;;;;;;;21.78;37.45;94900.41;5061127;28;20035;-45
2024/04/04 06:34:15;;;;;;;1.40;0.60;;;;;;;20.88;39.14;94903.66;5067896;28;20033;-44
2024/04/04 06:36:41;;;;;;;1.02;0.45;;;;;;;20.45;39.70;94905.31;5060756;28;20038;-45
2024/04/04 06:39:07;;;;;;;0.80;0.50;;;;;;;19.42;41.36;94901.28;5069687;28;20058;-45
2024/04/04 06:41:33;;;;;;;0.80;0.50;;;;;;;18.55;42.79;94895.28;5069595;28;20143;-46
2024/04/04 06:43:58;;;;;;;1.67;0.70;;;;;;;18.02;44.50;94887.66;5069187;28;20032;-45
2024/04/04 06:46:24;;;;;;;1.27;1.10;;;;;;;18.07;43.77;94885.94;5070686;28;20131;-44
2024/04/04 06:48:50;;;;;;;1.20;1.00;;;;;;;17.47;45.17;94889.63;5069165;28;20468;-44
2024/04/04 06:51:15;;;;;;;1.92;1.17;;;;;;;17.23;46.02;94888.00;5069250;28;20153;-44
2024/04/04 06:53:41;;;;;;;1.38;0.80;;;;;;;16.71;46.94;94891.97;5080018;28;20027;-45
2024/04/04 06:56:07;;;;;;;1.45;0.82;;;;;;;16.34;48.33;94899.16;5065767;28;20040;-44
2024/04/04 06:58:32;;;;;;;0.95;0.65;;;;;;;16.33;48.78;94903.56;5048527;28;20032;-45
2024/04/04 07:00:58;;;;;;;0.93;0.65;;;;;;;16.25;48.92;94908.34;5067794;28;20376;-44
2024/04/04 07:03:24;;;;;;;0.80;0.60;;;;;;;15.87;49.82;94909.38;5050246;28;20044;-44
2024/04/04 07:05:50;;;;;;;1.45;0.80;;;;;;;15.74;49.96;94905.06;5066077;28;20029;-44
2024/04/04 07:08:16;;;;;;;2.58;0.70;;;;;;;15.54;50.82;94892.91;5066645;28;20082;-45
2024/04/04 07:10:42;;;;;;;2.95;0.80;;;;;;;15.74;50.38;94895.34;5068916;28;20043;-44
2024/04/04 07:13:07;;;;;;;1.15;0.80;;;;;;;15.51;51.00;94903.03;5066171;28;20032;-44
2024/04/04 07:15:33;;;;;;;3.25;1.80;;;;;;;15.58;52.04;94901.16;5067224;28;20423;-44
2024/04/04 07:17:58;;;;;;;4.00;2.03;;;;;;;15.42;53.44;94900.69;5067630;28;20036;-44
2024/04/04 07:20:24;;;;;;;2.67;1.50;;;;;;;15.36;53.83;94906.75;5069098;28;20056;-44
2024/04/04 07:22:50;;;;;;;1.77;1.30;;;;;;;15.32;54.71;94908.22;5065854;28;20050;-44
2024/04/04 07:25:16;;;;;;;1.45;0.70;;;;;;;15.46;53.37;94895.81;5067867;28;20025;-44
2024/04/04 07:27:42;;;;;;;1.67;1.10;;;;;;;15.35;53.11;94901.75;5063364;28;20031;-48
2024/04/04 07:30:08;;;;;;;3.63;1.20;;;;;;;15.30;52.98;94897.16;5067187;28;20060;-45
2024/04/04 07:32:34;;;;;;;2.83;1.90;;;;;;;15.19;53.26;94900.47;5068184;28;20036;-44
2024/04/04 07:35:01;;;;;;;2.45;2.00;;;;;;;15.20;53.98;94899.47;5069012;28;20025;-44
2024/04/04 07:37:27;;;;;;;3.22;2.10;;;;;;;15.40;52.86;94901.91;5085307;28;20029;-44
2024/04/04 07:39:53;;;;;;;4.60;2.17;;;;;;;15.42;54.27;94894.63;5068523;28;20028;-44
2024/04/04 07:42:19;;;;;;;2.55;1.50;;;;;;;15.62;53.25;94895.25;5062506;28;20047;-44
2024/04/04 07:44:45;;;;;;;2.58;1.00;;;;;;;15.64;53.56;94895.81;5065103;28;20080;-44
2024/04/04 07:47:11;;;;;;;3.63;1.23;;;;;;;15.85;52.86;94906.94;5033358;28;20025;-44
2024/04/04 07:49:36;;;;;;;2.53;1.13;;;;;;;16.23;53.83;94908.56;5065406;28;20025;-45
2024/04/04 07:52:01;;;;;;;3.75;1.20;;;;;;;16.61;52.34;94908.25;5064827;28;20082;-44
2024/04/04 07:54:27;;;;;;;3.65;1.17;;;;;;;16.98;53.09;94899.50;5033319;28;20377;-45
2024/04/04 07:56:52;;;;;;;1.55;0.90;;;;;;;17.44;50.34;94897.16;5050563;28;20098;-44
2024/04/04 07:59:18;;;;;;;1.77;1.10;;;;;;;17.57;49.38;94902.19;5068513;28;20045;-44
2024/04/04 08:01:44;;;;;;;2.33;0.85;;;;;;;17.76;48.75;94890.53;5068064;28;20087;-48
2024/04/04 08:04:09;;;;;;;1.77;1.00;;;;;;;18.22;47.89;94893.34;5063345;28;20036;-44
2024/04/04 08:06:35;;;;;;;2.50;0.90;;;;;;;19.10;45.89;94899.19;5066948;28;20087;-47
2024/04/04 08:09:00;;;;;;;3.85;1.40;;;;;;;20.40;44.95;94897.31;5061203;28;20048;-44
2024/04/04 08:11:26;;;;;;;2.92;1.30;;;;;;;21.03;43.37;94895.06;5066278;28;20048;-45
2024/04/04 08:13:52;;;;;;;1.98;1.25;;;;;;;21.18;43.93;94891.78;5061826;28;20048;-44
2024/04/04 08:16:18;;;;;;;3.17;1.00;;;;;;;21.18;41.83;94876.69;5064280;28;20043;-44
2024/04/04 08:18:43;;;;;;;1.75;0.88;;;;;;;20.92;42.36;94873.03;5068015;28;20535;-47
2024/04/04 08:21:13;;;;;;;1.20;0.85;;;;;;;20.28;41.78;94865.75;5045957;28;20068;-45
2024/04/04 08:23:39;;;;;;;2.20;0.97;;;;;;;20.31;44.11;94870.53;5064387;28;20032;-44
2024/04/04 08:26:04;;;;;;;1.77;0.80;;;;;;;20.30;43.21;94856.53;5068881;28;20602;-45
2024/04/04 08:28:30;;;;;;;2.83;0.70;;;;;;;19.99;42.84;94844.00;5062884;28;20057;-46
2024/04/04 08:31:00;;;;;;;1.13;0.63;;;;;;;19.47;45.12;94843.31;5058023;28;20099;-47
2024/04/04 08:33:26;;;;;;;2.42;0.70;;;;;;;18.94;45.93;94828.78;5060911;28;20202;-45
2024/04/04 08:35:52;;;;;;;0.77;0.70;;;;;;;19.38;44.36;94836.88;5064715;28;20119;-45
2024/04/04 08:38:18;;;;;;;2.25;0.60;;;;;;;19.33;42.39;94840.22;5061292;28;20024;-44
2024/04/04 08:40:44;;;;;;;1.35;0.60;;;;;;;19.03;45.49;94837.91;5064904;28;20044;-45
2024/04/04 08:43:11;;;;;;;0.95;0.60;;;;;;;19.26;44.45;94844.06;5071306;28;20063;-45
2024/04/04 08:45:47;;;;;;;0.80;0.60;;;;;;;18.87;44.32;94844.00;5071062;28;20032;-45
2024/04/04 08:48:17;;;;;;;1.35;0.70;;;;;;;18.97;44.05;94844.16;5083909;28;20043;-44
2024/04/04 08:50:47;;;;;;;1.75;0.65;;;;;;;17.92;46.74;94841.69;5064269;28;20020;-45
2024/04/04 08:53:19;;;;;;;2.73;0.60;;;;;;;17.83;48.02;94835.16;5067047;28;20032;-45
2024/04/04 08:55:46;;;;;;;2.08;0.60;;;;;;;18.29;47.53;94833.44;5070309;28;20059;-48
2024/04/04 08:58:16;;;;;;;1.95;0.60;;;;;;;18.34;45.60;94832.75;5070390;28;20043;-44
2024/04/04 09:00:43;;;;;;;0.65;0.50;;;;;;;18.70;43.02;94828.13;5068942;28;20037;-44
2024/04/04 09:03:09;;;;;;;1.00;0.50;;;;;;;18.70;44.03;94820.22;5071677;28;20047;-44
2024/04/04 09:05:34;;;;;;;0.90;0.40;;;;;;;18.57;43.64;94813.41;5052347;28;20040;-47
2024/04/04 09:08:03;;;;;;;1.25;0.30;;;;;;;18.60;43.13;94817.41;5069833;28;20056;-47
2024/04/04 09:10:29;;;;;;;4.57;0.47;;;;;;;18.82;43.63;94817.53;5070870;28;20036;-47
2024/04/04 09:13:01;;;;;;;1.35;0.40;;;;;;;19.09;42.43;94815.06;5068845;28;20063;-44
2024/04/04 09:15:27;;;;;;;0.40;0.30;;;;;;;19.46;42.44;94817.19;5061432;28;20032;-46
2024/04/04 09:18:01;;;;;;;1.27;0.40;;;;;;;19.47;41.49;94819.56;5069106;28;20070;-45
2024/04/04 09:20:27;;;;;;;1.23;0.60;;;;;;;19.64;43.61;94806.34;5071999;28;20067;-46
2024/04/04 09:22:56;;;;;;;1.65;0.50;;;;;;;19.72;44.62;94815.69;5068166;28;20060;-46
2024/04/04 09:25:21;;;;;;;1.73;0.50;;;;;;;19.86;44.55;94809.03;5042077;28;20081;-46
2024/04/04 09:27:47;;;;;;;1.20;0.43;;;;;;;19.85;44.10;94810.06;5065556;28;20036;-44
2024/04/04 09:30:17;;;;;;;0.40;0.40;;;;;;;20.44;43.89;94801.47;5062709;28;20058;-45
2024/04/04 09:32:43;;;;;;;0.95;0.52;;;;;;;20.38;41.95;94797.19;5072032;28;20111;-44
2024/04/04 09:35:09;;;;;;;0.73;0.40;;;;;;;20.56;41.99;94796.06;5053564;28;20079;-44
2024/04/04 09:37:35;;;;;;;0.38;0.30;;;;;;;21.00;38.54;94793.28;5053553;28;20037;-45
2024/04/04 09:40:00;;;;;;;0.63;0.28;;;;;;;21.33;38.83;94798.50;5067182;28;20095;-45
2024/04/04 09:42:28;;;;;;;1.55;0.50;;;;;;;21.32;39.34;94803.00;5069924;28;20029;-45
2024/04/04 09:44:54;;;;;;;1.00;0.30;;;;;;;21.18;38.08;94800.00;5049785;28;20039;-44
2024/04/04 09:47:20;;;;;;;3.40;0.32;;;;;;;20.60;40.06;94797.16;5068008;28;20040;-45
2024/04/04 09:49:49;;;;;;;0.50;0.30;;;;;;;20.57;39.92;94808.19;5048837;28;20028;-44
2024/04/04 09:52:16;;;;;;;0.93;0.35;;;;;;;20.43;40.48;94793.81;5070232;28;20121;-44
2024/04/04 09:54:43;;;;;;;0.65;0.40;;;;;;;20.37;39.68;94803.53;5069705;28;20043;-44
2024/04/04 09:57:09;;;;;;;0.57;0.40;;;;;;;20.09;41.01;94820.38;5062374;28;20024;-44
2024/04/04 09:59:34;;;;;;;0.63;0.28;;;;;;;20.13;39.83;94810.94;5069308;28;20041;-45
2024/04/04 10:02:04;;;;;;;0.35;0.22;;;;;;;19.97;39.49;94804.69;5053560;28;20028;-48
2024/04/04 10:04:36;;;;;;;1.15;0.30;;;;;;;19.49;41.46;94803.50;5068001;28;20361;-44
2024/04/04 10:07:02;;;;;;;0.65;0.30;;;;;;;20.07;43.23;94818.00;5068618;28;20503;-45
2024/04/04 10:09:41;;;;;;;0.40;0.30;;;;;;;20.80;40.00;94812.41;5068772;28;20418;-45
2024/04/04 10:12:16;;;;;;;0.60;0.30;;;;;;;20.84;39.75;94812.69;5067398;28;20028;-45
2024/04/04 10:14:53;;;;;;;0.40;0.30;;;;;;;20.93;39.61;94818.31;5060389;28;20032;-45
2024/04/04 10:17:19;;;;;;;1.35;0.40;;;;;;;21.22;40.43;94821.44;5064037;28;20028;-44
2024/04/04 10:19:48;;;;;;;0.55;0.38;;;;;;;20.95;40.26;94826.81;5064505;28;20036;-48
2024/04/04 10:22:16;;;;;;;0.40;0.30;;;;;;;21.00;37.04;94819.72;5066955;28;20029;-45
2024/04/04 10:24:42;;;;;;;1.42;0.40;;;;;;;20.95;39.73;94824.94;5067443;28;20028;-45
2024/04/04 10:27:10;;;;;;;0.65;0.40;;;;;;;21.19;39.17;94822.75;5070098;28;20032;-45
2024/04/04 10:29:36;;;;;;;1.17;0.40;;;;;;;21.21;40.13;94817.19;5063616;28;20021;-44
2024/04/04 10:32:02;;;;;;;0.68;0.40;;;;;;;21.31;39.27;94825.22;5065634;28;20098;-45
2024/04/04 10:34:28;;;;;;;0.82;0.30;;;;;;;21.12;35.48;94827.47;5067721;28;20036;-45
2024/04/04 10:36:53;;;;;;;1.38;0.40;;;;;;;20.94;39.37;94822.53;5063747;28;20044;-45
2024/04/04 10:39:21;;;;;;;0.60;0.20;;;;;;;21.41;38.08;94835.84;5063247;28;20035;-47
2024/04/04 10:41:48;;;;;;;1.05;0.28;;;;;;;21.36;37.33;94830.53;5069394;28;20020;-45
2024/04/04 10:44:16;;;;;;;0.60;0.28;;;;;;;21.70;37.48;94830.22;5069860;28;20028;-46
2024/04/04 10:46:47;;;;;;;0.30;0.20;;;;;;;21.80;34.47;94832.94;5066639;28;20044;-45
2024/04/04 10:49:13;;;;;;;0.22;0.20;;;;;;;21.55;34.58;94835.44;5066101;28;20021;-45
2024/04/04 10:51:43;;;;;;;0.25;0.20;;;;;;;21.80;34.32;94832.13;5058135;28;20060;-46
2024/04/04 10:54:09;;;;;;;1.20;0.20;;;;;;;22.09;33.40;94831.75;5069777;28;20056;-45
2024/04/04 10:56:35;;;;;;;0.32;0.28;;;;;;;22.14;36.00;94835.22;5069382;28;20033;-47
2024/04/04 10:59:01;;;;;;;0.25;0.25;;;;;;;21.95;32.05;94828.75;5068602;28;20100;-46
2024/04/04 11:01:28;;;;;;;0.80;0.30;;;;;;;21.82;34.80;94841.41;5068946;28;20032;-46
2024/04/04 11:03:56;;;;;;;0.50;0.30;;;;;;;21.70;33.48;94832.09;5050655;28;20130;-46
2024/04/04 11:06:27;;;;;;;2.33;0.30;;;;;;;21.12;35.42;94837.25;5059555;28;20035;-46
2024/04/04 11:08:54;;;;;;;0.43;0.20;;;;;;;21.49;34.49;94834.59;5077499;28;20053;-46
2024/04/04 11:11:21;;;;;;;0.47;0.20;;;;;;;21.29;35.79;94840.53;5059060;28;20028;-46
2024/04/04 11:13:49;;;;;;;0.20;0.20;;;;;;;21.27;35.06;94840.00;5068899;28;20040;-46
2024/04/04 11:16:16;;;;;;;0.55;0.20;;;;;;;21.38;35.82;94835.56;5070112;28;20170;-46
2024/04/04 11:18:44;;;;;;;0.30;0.30;;;;;;;21.61;34.61;94839.69;5061926;28;20025;-47
2024/04/04 11:21:09;;;;;;;0.22;0.20;;;;;;;21.64;34.98;94847.13;5058287;28;20025;-48
2024/04/04 11:23:35;;;;;;;0.65;0.30;;;;;;;21.73;35.84;94839.53;5066269;28;20024;-46
2024/04/04 11:26:01;;;;;;;0.45;0.22;;;;;;;21.58;34.53;94840.22;5065933;28;20044;-45
2024/04/04 11:28:26;;;;;;;0.20;0.20;;;;;;;21.92;34.69;94848.63;5060812;28;20043;-47
2024/04/04 11:30:53;;;;;;;1.70;0.30;;;;;;;22.08;34.97;94846.03;5066760;28;20025;-46